createdAt,value
2019-02-28T00:01:21.364Z,5.80
2019-02-28T00:06:23.016Z,5.83
2019-02-28T00:11:24.571Z,5.85
2019-02-28T00:16:26.235Z,5.86
2019-02-28T00:21:27.839Z,5.90
2019-02-28T00:26:29.528Z,5.90
2019-02-28T00:31:31.219Z,5.89
2019-02-28T00:36:32.763Z,5.91
2019-02-28T00:41:34.667Z,5.92
2019-02-28T00:46:36.221Z,5.84
2019-02-28T00:51:37.869Z,5.75
2019-02-28T00:56:39.536Z,5.76
2019-02-28T01:01:43.062Z,5.76
2019-02-28T01:06:44.575Z,5.79
2019-02-28T01:11:46.121Z,5.80
2019-02-28T01:16:50.225Z,5.78
2019-02-28T01:21:51.331Z,5.73
2019-02-28T01:26:52.907Z,5.70
2019-02-28T01:31:54.523Z,5.66
2019-02-28T01:36:56.074Z,5.63
2019-02-28T01:41:57.800Z,5.63
2019-02-28T01:46:59.357Z,5.60
2019-02-28T01:52:00.911Z,5.53
2019-02-28T01:57:02.469Z,5.44
2019-02-28T02:02:06.659Z,5.36
2019-02-28T02:07:07.921Z,5.35
2019-02-28T02:12:09.580Z,5.37
2019-02-28T02:17:12.184Z,5.32
2019-02-28T02:22:13.768Z,5.32
2019-02-28T02:27:16.322Z,5.33
2019-02-28T02:32:18.817Z,5.45
2019-02-28T02:37:21.361Z,5.48
2019-02-28T02:42:23.042Z,5.55
2019-02-28T02:47:31.315Z,5.55
2019-02-28T02:52:30.434Z,5.55
2019-02-28T02:57:32.599Z,5.57
2019-02-28T03:02:34.386Z,5.52
2019-02-28T03:07:36.046Z,5.54
2019-02-28T03:12:37.895Z,5.55
2019-02-28T03:17:39.552Z,5.59
2019-02-28T03:22:42.107Z,5.58
2019-02-28T03:27:43.657Z,5.61
2019-02-28T03:32:45.621Z,5.60
2019-02-28T03:37:47.573Z,5.63
2019-02-28T03:42:49.258Z,5.70
2019-02-28T03:47:50.784Z,5.61
2019-02-28T03:52:52.334Z,5.44
2019-02-28T03:57:53.989Z,5.29
2019-02-28T04:02:58.703Z,5.14
2019-02-28T04:07:59.046Z,5.04
2019-02-28T04:13:00.611Z,5.02
2019-02-28T04:18:06.902Z,5.00
2019-02-28T04:23:05.945Z,5.01
2019-02-28T04:28:07.534Z,5.15
2019-02-28T04:33:10.095Z,5.21
2019-02-28T04:38:13.604Z,5.25
2019-02-28T04:43:17.701Z,5.23
2019-02-28T04:48:20.359Z,5.19
2019-02-28T04:53:21.909Z,5.20
2019-02-28T04:58:25.266Z,5.28
2019-02-28T05:03:28.929Z,5.39
2019-02-28T05:08:30.415Z,5.55
2019-02-28T05:13:31.964Z,5.64
2019-02-28T05:18:33.510Z,5.67
2019-02-28T05:23:36.035Z,5.73
2019-02-28T05:28:41.157Z,5.76
2019-02-28T05:33:42.757Z,5.76
2019-02-28T05:38:44.505Z,5.76
2019-02-28T05:43:46.133Z,5.77
2019-02-28T05:48:47.676Z,5.82
2019-02-28T05:53:49.237Z,5.89
2019-02-28T05:58:52.468Z,6.09
2019-02-28T06:03:54.345Z,6.81
2019-02-28T06:08:55.899Z,7.29
2019-02-28T06:13:57.451Z,7.58
2019-02-28T06:18:59.147Z,7.96
2019-02-28T06:24:00.712Z,8.31
2019-02-28T06:29:05.073Z,8.62
2019-02-28T06:34:08.593Z,9.03
2019-02-28T06:39:09.372Z,9.35
2019-02-28T06:44:11.027Z,9.67
2019-02-28T06:49:12.655Z,9.93
2019-02-28T06:54:14.453Z,10.10
2019-02-28T06:59:16.007Z,10.38
2019-02-28T07:04:17.555Z,10.64
2019-02-28T07:09:19.110Z,10.89
2019-02-28T07:14:20.651Z,11.22
2019-02-28T07:19:22.248Z,11.44
2019-02-28T07:24:23.796Z,11.52
2019-02-28T07:29:25.398Z,11.70
2019-02-28T07:34:27.199Z,11.88
2019-02-28T07:39:28.761Z,11.75
2019-02-28T07:44:30.410Z,11.90
2019-02-28T07:49:35.554Z,11.93
2019-02-28T07:54:35.499Z,12.03
2019-02-28T07:59:40.963Z,12.20
2019-02-28T08:04:40.515Z,12.30
2019-02-28T08:09:42.316Z,12.47
2019-02-28T08:14:47.025Z,12.53
2019-02-28T08:19:47.378Z,12.65
2019-02-28T08:24:48.932Z,12.81
2019-02-28T08:29:50.777Z,13.07
2019-02-28T08:34:55.524Z,13.21
2019-02-28T08:39:55.919Z,13.42
2019-02-28T08:44:58.968Z,13.56
2019-02-28T08:50:00.722Z,13.67
2019-02-28T08:55:09.223Z,13.74
2019-02-28T09:00:17.318Z,13.86
2019-02-28T09:05:25.456Z,14.10
2019-02-28T09:10:24.573Z,14.40
2019-02-28T09:15:31.049Z,14.61
2019-02-28T09:20:32.327Z,14.64
2019-02-28T09:25:33.977Z,14.76
2019-02-28T09:30:44.407Z,14.85
2019-02-28T09:35:46.535Z,14.78
2019-02-28T09:40:48.225Z,14.77
2019-02-28T09:45:50.033Z,14.78
2019-02-28T09:50:58.034Z,14.87
2019-02-28T09:55:55.080Z,15.01
2019-02-28T10:00:57.946Z,15.33
2019-02-28T10:05:59.673Z,15.32
2019-02-28T10:11:01.225Z,15.29
2019-02-28T10:16:02.877Z,15.34
2019-02-28T10:21:05.547Z,15.47
2019-02-28T10:26:07.215Z,15.54
2019-02-28T10:31:08.801Z,15.60
2019-02-28T10:36:12.794Z,15.21
2019-02-28T10:41:15.396Z,14.97
2019-02-28T10:46:20.114Z,14.57
2019-02-28T10:51:20.672Z,14.42
2019-02-28T10:56:22.219Z,14.10
2019-02-28T11:01:26.087Z,14.07
2019-02-28T11:06:28.909Z,14.35
2019-02-28T11:11:30.812Z,13.65
2019-02-28T11:16:32.481Z,14.34
2019-02-28T11:21:34.123Z,15.20
2019-02-28T11:26:35.811Z,15.64
2019-02-28T11:31:37.520Z,15.06
2019-02-28T11:36:39.130Z,15.80
2019-02-28T11:41:40.885Z,16.08
2019-02-28T11:46:43.715Z,16.26
2019-02-28T11:51:53.073Z,16.53
2019-02-28T11:56:56.323Z,16.70
2019-02-28T12:01:57.975Z,16.82
2019-02-28T12:07:00.967Z,16.73
2019-02-28T12:12:03.445Z,16.69
2019-02-28T12:17:05.042Z,16.81
2019-02-28T12:22:09.173Z,16.87
2019-02-28T12:27:10.362Z,17.00
2019-02-28T12:32:11.944Z,17.02
2019-02-28T12:37:14.547Z,17.15
2019-02-28T12:42:16.405Z,17.22
2019-02-28T12:47:18.119Z,16.99
2019-02-28T12:52:19.727Z,16.93
2019-02-28T12:57:22.379Z,16.67
2019-02-28T13:02:24.700Z,16.67
2019-02-28T13:07:26.363Z,16.83
2019-02-28T13:12:27.950Z,16.88
2019-02-28T13:17:31.643Z,16.85
2019-02-28T13:22:34.083Z,16.81
2019-02-28T13:27:36.622Z,16.86
2019-02-28T13:32:39.334Z,17.08
2019-02-28T13:37:42.264Z,17.10
2019-02-28T13:42:44.656Z,16.76
2019-02-28T13:47:47.863Z,16.74
2019-02-28T13:52:52.149Z,16.60
2019-02-28T13:57:53.237Z,16.39
2019-02-28T14:02:57.612Z,16.44
2019-02-28T14:07:59.377Z,16.41
2019-02-28T14:13:01.230Z,15.96
2019-02-28T14:18:03.778Z,15.55
2019-02-28T14:23:08.441Z,15.55
2019-02-28T14:28:10.000Z,15.58
2019-02-28T14:33:11.751Z,15.35
2019-02-28T14:38:13.413Z,15.10
2019-02-28T14:43:15.133Z,14.93
2019-02-28T14:48:17.117Z,14.78
2019-02-28T14:53:18.807Z,14.66
2019-02-28T14:58:22.324Z,14.42
2019-02-28T15:03:24.251Z,14.42
2019-02-28T15:08:27.102Z,14.30
2019-02-28T15:13:30.432Z,14.10
2019-02-28T15:18:32.769Z,14.16
2019-02-28T15:23:35.131Z,13.92
2019-02-28T15:28:36.798Z,13.99
2019-02-28T15:33:38.375Z,13.77
2019-02-28T15:38:41.913Z,13.54
2019-02-28T15:43:44.540Z,13.17
2019-02-28T15:48:46.165Z,12.87
2019-02-28T15:53:49.599Z,12.66
2019-02-28T15:58:51.611Z,12.44
2019-02-28T16:03:53.279Z,12.22
2019-02-28T16:08:54.880Z,12.04
2019-02-28T16:13:57.505Z,11.75
2019-02-28T16:18:59.226Z,11.54
2019-02-28T16:24:02.047Z,11.39
2019-02-28T16:29:04.448Z,11.16
2019-02-28T16:34:08.364Z,11.08
2019-02-28T16:39:09.767Z,10.93
2019-02-28T16:44:12.396Z,10.69
2019-02-28T16:49:14.182Z,10.52
2019-02-28T16:54:15.741Z,10.33
2019-02-28T16:59:17.290Z,10.16
2019-02-28T17:04:18.843Z,10.10
2019-02-28T17:09:22.393Z,10.03
2019-02-28T17:14:24.151Z,9.97
2019-02-28T17:19:28.631Z,9.91
2019-02-28T17:24:29.248Z,9.90
2019-02-28T17:29:32.763Z,9.90
2019-02-28T17:34:34.374Z,9.89
2019-02-28T17:39:35.916Z,9.87
2019-02-28T17:44:45.973Z,9.79
2019-02-28T17:50:27.531Z,9.76
2019-02-28T17:56:22.820Z,9.77
2019-02-28T18:01:32.795Z,9.67
2019-02-28T18:07:00.598Z,9.61
2019-02-28T18:12:27.405Z,9.56
2019-02-28T18:18:08.888Z,9.54
2019-02-28T18:23:35.655Z,9.49
2019-02-28T18:28:51.764Z,9.40
2019-02-28T18:33:56.904Z,9.34
2019-02-28T18:38:58.671Z,9.26
2019-02-28T18:44:03.738Z,9.18
2019-02-28T18:49:03.899Z,9.05
2019-02-28T18:54:05.529Z,8.97
2019-02-28T18:59:07.090Z,8.91
2019-02-28T19:04:08.709Z,8.86
2019-02-28T19:09:21.377Z,8.80
2019-02-28T19:14:23.160Z,8.70
2019-02-28T19:19:24.824Z,8.59
2019-02-28T19:24:26.764Z,8.55
2019-02-28T19:29:28.462Z,8.49
2019-02-28T19:34:30.094Z,8.43
2019-02-28T19:39:31.658Z,8.35
2019-02-28T19:44:33.317Z,8.27
2019-02-28T19:49:34.978Z,8.21
2019-02-28T19:54:36.682Z,8.20
2019-02-28T19:59:38.237Z,8.22
2019-02-28T20:04:40.862Z,8.22
2019-02-28T20:09:42.645Z,8.25
2019-02-28T20:14:44.766Z,8.22
2019-02-28T20:19:46.357Z,8.20
2019-02-28T20:24:47.913Z,8.25
2019-02-28T20:29:55.078Z,8.30
2019-02-28T20:34:53.248Z,8.34
2019-02-28T20:39:54.903Z,8.33
2019-02-28T20:44:56.573Z,8.33
2019-02-28T20:49:58.332Z,8.33
2019-02-28T20:54:59.945Z,8.27
2019-02-28T21:00:08.354Z,8.20
2019-02-28T21:05:10.164Z,8.16
2019-02-28T21:10:12.021Z,8.12
2019-02-28T21:15:13.783Z,8.04
2019-02-28T21:20:15.759Z,8.00
2019-02-28T21:25:17.648Z,7.94
2019-02-28T21:30:26.667Z,7.87
2019-02-28T21:35:28.783Z,7.89
2019-02-28T21:40:30.639Z,7.88
2019-02-28T21:45:33.695Z,7.88
2019-02-28T21:50:35.555Z,7.89
2019-02-28T21:55:37.283Z,7.85
2019-02-28T22:00:39.048Z,7.85
2019-02-28T22:05:41.017Z,7.83
2019-02-28T22:10:42.587Z,7.78
2019-02-28T22:15:44.149Z,7.70
2019-02-28T22:20:45.704Z,7.65
2019-02-28T22:25:47.364Z,7.64
2019-02-28T22:30:49.949Z,7.57
2019-02-28T22:35:53.479Z,7.52
2019-02-28T22:40:55.040Z,7.49
2019-02-28T22:45:56.655Z,7.45
2019-02-28T22:50:58.233Z,7.45
2019-02-28T22:55:59.875Z,7.48
2019-02-28T23:01:15.710Z,7.51
2019-02-28T23:06:17.365Z,7.50
2019-02-28T23:11:19.181Z,7.50
2019-02-28T23:16:20.840Z,7.44
2019-02-28T23:21:22.390Z,7.36
2019-02-28T23:26:24.451Z,7.32
2019-02-28T23:31:55.613Z,7.28
2019-02-28T23:36:57.202Z,7.30
2019-02-28T23:41:58.807Z,7.30
2019-02-28T23:47:00.386Z,7.30
2019-02-28T23:52:01.936Z,7.23
2019-02-28T23:57:03.559Z,7.21
